sensor_id;sensor_type;location;lat;lon;timestamp;P1;durP1;ratioP1;P2;durP2;ratioP2
19812;SDS011;10066;48.108;11.448;2024-03-17T00:02:05;3.17;;;2.30;;
19812;SDS011;10066;48.108;11.448;2024-03-17T00:04:32;2.57;;;1.93;;
19812;SDS011;10066;48.108;11.448;2024-03-17T00:06:59;3.67;;;2.20;;
19812;SDS011;10066;48.108;11.448;2024-03-17T00:09:27;2.30;;;1.87;;
19812;SDS011;10066;48.108;11.448;2024-03-17T00:11:53;4.20;;;2.20;;
19812;SDS011;10066;48.108;11.448;2024-03-17T00:14:20;2.87;;;2.03;;
19812;SDS011;10066;48.108;11.448;2024-03-17T00:16:47;3.63;;;1.93;;
19812;SDS011;10066;48.108;11.448;2024-03-17T00:19:14;5.33;;;2.50;;
19812;SDS011;10066;48.108;11.448;2024-03-17T00:21:42;4.60;;;2.43;;
19812;SDS011;10066;48.108;11.448;2024-03-17T00:24:10;2.40;;;2.20;;
19812;SDS011;10066;48.108;11.448;2024-03-17T00:26:38;3.73;;;2.10;;
19812;SDS011;10066;48.108;11.448;2024-03-17T00:29:05;2.47;;;2.27;;
19812;SDS011;10066;48.108;11.448;2024-03-17T00:31:32;3.30;;;2.10;;
19812;SDS011;10066;48.108;11.448;2024-03-17T00:33:59;2.57;;;1.83;;
19812;SDS011;10066;48.108;11.448;2024-03-17T00:36:25;3.33;;;2.23;;
19812;SDS011;10066;48.108;11.448;2024-03-17T00:38:52;3.03;;;2.27;;
19812;SDS011;10066;48.108;11.448;2024-03-17T00:41:20;3.13;;;2.50;;
19812;SDS011;10066;48.108;11.448;2024-03-17T00:43:47;3.07;;;1.90;;
19812;SDS011;10066;48.108;11.448;2024-03-17T00:46:13;2.87;;;2.20;;
19812;SDS011;10066;48.108;11.448;2024-03-17T00:48:41;3.00;;;1.93;;
19812;SDS011;10066;48.108;11.448;2024-03-17T00:51:07;2.57;;;1.93;;
19812;SDS011;10066;48.108;11.448;2024-03-17T00:53:34;2.83;;;2.07;;
19812;SDS011;10066;48.108;11.448;2024-03-17T00:56:01;1.97;;;1.70;;
19812;SDS011;10066;48.108;11.448;2024-03-17T00:58:29;3.43;;;1.90;;
19812;SDS011;10066;48.108;11.448;2024-03-17T01:00:55;3.03;;;2.00;;
19812;SDS011;10066;48.108;11.448;2024-03-17T01:03:23;2.63;;;2.10;;
19812;SDS011;10066;48.108;11.448;2024-03-17T01:05:49;2.93;;;1.83;;
19812;SDS011;10066;48.108;11.448;2024-03-17T01:08:17;3.63;;;2.00;;
19812;SDS011;10066;48.108;11.448;2024-03-17T01:10:44;3.73;;;1.97;;
19812;SDS011;10066;48.108;11.448;2024-03-17T01:13:15;3.67;;;2.50;;
19812;SDS011;10066;48.108;11.448;2024-03-17T01:15:43;3.17;;;1.90;;
19812;SDS011;10066;48.108;11.448;2024-03-17T01:18:11;3.13;;;2.00;;
19812;SDS011;10066;48.108;11.448;2024-03-17T01:20:38;2.30;;;1.83;;
19812;SDS011;10066;48.108;11.448;2024-03-17T01:23:05;2.20;;;1.77;;
19812;SDS011;10066;48.108;11.448;2024-03-17T01:25:33;4.70;;;2.37;;
19812;SDS011;10066;48.108;11.448;2024-03-17T01:28:02;3.87;;;2.33;;
19812;SDS011;10066;48.108;11.448;2024-03-17T01:30:29;2.43;;;2.20;;
19812;SDS011;10066;48.108;11.448;2024-03-17T01:32:59;3.53;;;2.10;;
19812;SDS011;10066;48.108;11.448;2024-03-17T01:35:25;2.60;;;1.80;;
19812;SDS011;10066;48.108;11.448;2024-03-17T01:37:53;2.70;;;1.93;;
19812;SDS011;10066;48.108;11.448;2024-03-17T01:40:19;2.10;;;1.90;;
19812;SDS011;10066;48.108;11.448;2024-03-17T01:42:47;3.30;;;2.00;;
19812;SDS011;10066;48.108;11.448;2024-03-17T01:45:26;4.43;;;2.10;;
19812;SDS011;10066;48.108;11.448;2024-03-17T01:47:54;2.80;;;2.20;;
19812;SDS011;10066;48.108;11.448;2024-03-17T01:50:24;2.57;;;2.17;;
19812;SDS011;10066;48.108;11.448;2024-03-17T01:52:53;4.90;;;2.17;;
19812;SDS011;10066;48.108;11.448;2024-03-17T01:55:21;4.30;;;2.30;;
19812;SDS011;10066;48.108;11.448;2024-03-17T01:57:49;5.07;;;2.70;;
19812;SDS011;10066;48.108;11.448;2024-03-17T02:00:17;3.97;;;2.20;;
19812;SDS011;10066;48.108;11.448;2024-03-17T02:02:44;2.87;;;2.23;;
19812;SDS011;10066;48.108;11.448;2024-03-17T02:05:10;2.90;;;2.20;;
19812;SDS011;10066;48.108;11.448;2024-03-17T02:07:40;2.57;;;2.37;;
19812;SDS011;10066;48.108;11.448;2024-03-17T02:10:06;4.37;;;2.50;;
19812;SDS011;10066;48.108;11.448;2024-03-17T02:12:34;4.47;;;2.60;;
19812;SDS011;10066;48.108;11.448;2024-03-17T02:15:01;4.10;;;2.73;;
19812;SDS011;10066;48.108;11.448;2024-03-17T02:17:31;2.87;;;2.40;;
19812;SDS011;10066;48.108;11.448;2024-03-17T02:19:57;3.50;;;2.63;;
19812;SDS011;10066;48.108;11.448;2024-03-17T02:22:25;2.50;;;2.30;;
19812;SDS011;10066;48.108;11.448;2024-03-17T02:24:53;4.53;;;2.50;;
19812;SDS011;10066;48.108;11.448;2024-03-17T02:27:20;3.83;;;2.50;;
19812;SDS011;10066;48.108;11.448;2024-03-17T02:29:46;3.60;;;2.10;;
19812;SDS011;10066;48.108;11.448;2024-03-17T02:32:13;2.87;;;2.10;;
19812;SDS011;10066;48.108;11.448;2024-03-17T02:34:39;3.97;;;2.30;;
19812;SDS011;10066;48.108;11.448;2024-03-17T02:37:07;2.83;;;2.33;;
19812;SDS011;10066;48.108;11.448;2024-03-17T02:39:34;2.40;;;2.20;;
19812;SDS011;10066;48.108;11.448;2024-03-17T02:42:04;3.13;;;2.27;;
19812;SDS011;10066;48.108;11.448;2024-03-17T02:44:32;6.53;;;2.70;;
19812;SDS011;10066;48.108;11.448;2024-03-17T02:47:01;3.80;;;2.43;;
19812;SDS011;10066;48.108;11.448;2024-03-17T02:49:30;3.10;;;2.30;;
19812;SDS011;10066;48.108;11.448;2024-03-17T02:52:02;2.50;;;2.20;;
19812;SDS011;10066;48.108;11.448;2024-03-17T02:54:29;5.13;;;2.40;;
19812;SDS011;10066;48.108;11.448;2024-03-17T02:56:58;4.10;;;2.50;;
19812;SDS011;10066;48.108;11.448;2024-03-17T02:59:26;4.40;;;2.50;;
19812;SDS011;10066;48.108;11.448;2024-03-17T03:01:53;4.47;;;2.20;;
19812;SDS011;10066;48.108;11.448;2024-03-17T03:04:21;3.50;;;2.40;;
19812;SDS011;10066;48.108;11.448;2024-03-17T03:06:48;3.23;;;2.20;;
19812;SDS011;10066;48.108;11.448;2024-03-17T03:09:15;3.57;;;2.33;;
19812;SDS011;10066;48.108;11.448;2024-03-17T03:11:47;3.60;;;2.57;;
19812;SDS011;10066;48.108;11.448;2024-03-17T03:14:16;3.83;;;2.50;;
19812;SDS011;10066;48.108;11.448;2024-03-17T03:16:43;4.97;;;2.70;;
19812;SDS011;10066;48.108;11.448;2024-03-17T03:19:10;3.13;;;2.47;;
19812;SDS011;10066;48.108;11.448;2024-03-17T03:21:37;2.63;;;2.40;;
19812;SDS011;10066;48.108;11.448;2024-03-17T03:24:05;3.63;;;2.50;;
19812;SDS011;10066;48.108;11.448;2024-03-17T03:26:32;3.53;;;2.50;;
19812;SDS011;10066;48.108;11.448;2024-03-17T03:28:59;3.17;;;2.67;;
19812;SDS011;10066;48.108;11.448;2024-03-17T03:31:28;3.33;;;2.33;;
19812;SDS011;10066;48.108;11.448;2024-03-17T03:33:55;6.17;;;3.00;;
19812;SDS011;10066;48.108;11.448;2024-03-17T03:36:26;4.03;;;2.80;;
19812;SDS011;10066;48.108;11.448;2024-03-17T03:38:53;3.10;;;2.30;;
19812;SDS011;10066;48.108;11.448;2024-03-17T03:41:22;4.50;;;2.90;;
19812;SDS011;10066;48.108;11.448;2024-03-17T03:43:50;3.03;;;2.60;;
19812;SDS011;10066;48.108;11.448;2024-03-17T03:46:17;4.20;;;2.80;;
19812;SDS011;10066;48.108;11.448;2024-03-17T03:48:47;5.40;;;2.90;;
19812;SDS011;10066;48.108;11.448;2024-03-17T03:51:14;3.10;;;2.37;;
19812;SDS011;10066;48.108;11.448;2024-03-17T03:53:41;3.90;;;3.03;;
19812;SDS011;10066;48.108;11.448;2024-03-17T03:56:08;4.50;;;2.73;;
19812;SDS011;10066;48.108;11.448;2024-03-17T03:58:36;4.23;;;3.27;;
19812;SDS011;10066;48.108;11.448;2024-03-17T04:01:05;3.57;;;3.20;;
19812;SDS011;10066;48.108;11.448;2024-03-17T04:03:33;4.03;;;3.40;;
19812;SDS011;10066;48.108;11.448;2024-03-17T04:06:03;6.20;;;3.90;;
19812;SDS011;10066;48.108;11.448;2024-03-17T04:08:31;7.27;;;3.57;;
19812;SDS011;10066;48.108;11.448;2024-03-17T04:10:59;5.90;;;4.20;;
19812;SDS011;10066;48.108;11.448;2024-03-17T04:13:27;4.57;;;3.70;;
19812;SDS011;10066;48.108;11.448;2024-03-17T04:15:55;4.87;;;3.53;;
19812;SDS011;10066;48.108;11.448;2024-03-17T04:18:24;6.70;;;3.50;;
19812;SDS011;10066;48.108;11.448;2024-03-17T04:20:51;4.43;;;3.43;;
19812;SDS011;10066;48.108;11.448;2024-03-17T04:23:21;3.53;;;2.90;;
19812;SDS011;10066;48.108;11.448;2024-03-17T04:25:48;4.37;;;3.53;;
19812;SDS011;10066;48.108;11.448;2024-03-17T04:28:16;5.43;;;3.20;;
19812;SDS011;10066;48.108;11.448;2024-03-17T04:30:44;6.87;;;3.30;;
19812;SDS011;10066;48.108;11.448;2024-03-17T04:33:12;4.03;;;2.83;;
19812;SDS011;10066;48.108;11.448;2024-03-17T04:35:39;6.13;;;3.17;;
19812;SDS011;10066;48.108;11.448;2024-03-17T04:38:07;6.77;;;3.37;;
19812;SDS011;10066;48.108;11.448;2024-03-17T04:40:39;4.70;;;3.40;;
19812;SDS011;10066;48.108;11.448;2024-03-17T04:43:06;5.80;;;3.60;;
19812;SDS011;10066;48.108;11.448;2024-03-17T04:45:34;5.60;;;3.77;;
19812;SDS011;10066;48.108;11.448;2024-03-17T04:48:02;5.20;;;3.60;;
19812;SDS011;10066;48.108;11.448;2024-03-17T04:50:30;5.93;;;3.60;;
19812;SDS011;10066;48.108;11.448;2024-03-17T04:52:57;7.03;;;3.57;;
19812;SDS011;10066;48.108;11.448;2024-03-17T04:55:25;6.23;;;4.07;;
19812;SDS011;10066;48.108;11.448;2024-03-17T04:57:54;5.60;;;3.67;;
19812;SDS011;10066;48.108;11.448;2024-03-17T05:00:21;4.53;;;3.57;;
19812;SDS011;10066;48.108;11.448;2024-03-17T05:02:48;4.83;;;3.40;;
19812;SDS011;10066;48.108;11.448;2024-03-17T05:05:16;5.50;;;3.50;;
19812;SDS011;10066;48.108;11.448;2024-03-17T05:07:43;4.83;;;3.20;;
19812;SDS011;10066;48.108;11.448;2024-03-17T05:10:10;5.17;;;3.17;;
19812;SDS011;10066;48.108;11.448;2024-03-17T05:12:36;5.47;;;3.60;;
19812;SDS011;10066;48.108;11.448;2024-03-17T05:15:06;3.80;;;3.30;;
19812;SDS011;10066;48.108;11.448;2024-03-17T05:17:35;4.07;;;3.47;;
19812;SDS011;10066;48.108;11.448;2024-03-17T05:20:02;4.97;;;3.70;;
19812;SDS011;10066;48.108;11.448;2024-03-17T05:22:30;6.80;;;3.80;;
19812;SDS011;10066;48.108;11.448;2024-03-17T05:24:57;6.17;;;3.63;;
19812;SDS011;10066;48.108;11.448;2024-03-17T05:27:25;4.50;;;3.27;;
19812;SDS011;10066;48.108;11.448;2024-03-17T05:29:52;6.67;;;3.07;;
19812;SDS011;10066;48.108;11.448;2024-03-17T05:32:21;4.80;;;3.43;;
19812;SDS011;10066;48.108;11.448;2024-03-17T05:34:48;4.47;;;3.63;;
19812;SDS011;10066;48.108;11.448;2024-03-17T05:37:15;4.30;;;3.50;;
19812;SDS011;10066;48.108;11.448;2024-03-17T05:39:42;4.40;;;3.37;;
19812;SDS011;10066;48.108;11.448;2024-03-17T05:42:09;5.63;;;3.70;;
19812;SDS011;10066;48.108;11.448;2024-03-17T05:44:37;5.10;;;3.40;;
19812;SDS011;10066;48.108;11.448;2024-03-17T05:47:15;5.33;;;3.37;;
19812;SDS011;10066;48.108;11.448;2024-03-17T05:49:44;3.93;;;3.13;;
19812;SDS011;10066;48.108;11.448;2024-03-17T05:52:12;4.83;;;3.47;;
19812;SDS011;10066;48.108;11.448;2024-03-17T05:54:39;3.93;;;3.03;;
19812;SDS011;10066;48.108;11.448;2024-03-17T05:57:06;3.30;;;3.00;;
19812;SDS011;10066;48.108;11.448;2024-03-17T05:59:34;3.67;;;3.03;;
19812;SDS011;10066;48.108;11.448;2024-03-17T06:02:02;5.93;;;3.27;;
19812;SDS011;10066;48.108;11.448;2024-03-17T06:04:29;5.27;;;3.03;;
19812;SDS011;10066;48.108;11.448;2024-03-17T06:06:58;4.53;;;3.70;;
19812;SDS011;10066;48.108;11.448;2024-03-17T06:09:25;4.40;;;2.90;;
19812;SDS011;10066;48.108;11.448;2024-03-17T06:11:53;3.40;;;2.90;;
19812;SDS011;10066;48.108;11.448;2024-03-17T06:14:20;4.07;;;3.00;;
19812;SDS011;10066;48.108;11.448;2024-03-17T06:16:47;3.27;;;2.73;;
19812;SDS011;10066;48.108;11.448;2024-03-17T06:19:14;4.77;;;3.07;;
19812;SDS011;10066;48.108;11.448;2024-03-17T06:21:42;3.20;;;2.80;;
19812;SDS011;10066;48.108;11.448;2024-03-17T06:24:11;5.13;;;3.23;;
19812;SDS011;10066;48.108;11.448;2024-03-17T06:26:38;6.47;;;3.30;;
19812;SDS011;10066;48.108;11.448;2024-03-17T06:29:05;3.97;;;3.13;;
19812;SDS011;10066;48.108;11.448;2024-03-17T06:31:32;6.50;;;3.57;;
19812;SDS011;10066;48.108;11.448;2024-03-17T06:33:59;4.10;;;3.60;;
19812;SDS011;10066;48.108;11.448;2024-03-17T06:36:26;4.03;;;3.63;;
19812;SDS011;10066;48.108;11.448;2024-03-17T06:38:55;4.23;;;3.60;;
19812;SDS011;10066;48.108;11.448;2024-03-17T06:41:24;4.40;;;3.50;;
19812;SDS011;10066;48.108;11.448;2024-03-17T06:43:51;4.37;;;3.47;;
19812;SDS011;10066;48.108;11.448;2024-03-17T06:46:18;7.07;;;3.73;;
19812;SDS011;10066;48.108;11.448;2024-03-17T06:48:45;5.27;;;3.30;;
19812;SDS011;10066;48.108;11.448;2024-03-17T06:51:12;6.30;;;3.70;;
19812;SDS011;10066;48.108;11.448;2024-03-17T06:53:39;4.50;;;3.67;;
19812;SDS011;10066;48.108;11.448;2024-03-17T06:56:06;3.73;;;3.10;;
19812;SDS011;10066;48.108;11.448;2024-03-17T06:58:36;4.27;;;3.43;;
19812;SDS011;10066;48.108;11.448;2024-03-17T07:01:03;3.70;;;2.87;;
19812;SDS011;10066;48.108;11.448;2024-03-17T07:03:30;4.33;;;3.13;;
19812;SDS011;10066;48.108;11.448;2024-03-17T07:05:58;4.53;;;2.90;;
19812;SDS011;10066;48.108;11.448;2024-03-17T07:08:28;4.07;;;2.93;;
19812;SDS011;10066;48.108;11.448;2024-03-17T07:10:57;3.00;;;2.70;;
19812;SDS011;10066;48.108;11.448;2024-03-17T07:13:25;4.47;;;3.50;;
19812;SDS011;10066;48.108;11.448;2024-03-17T07:15:54;3.67;;;3.10;;
19812;SDS011;10066;48.108;11.448;2024-03-17T07:18:21;4.40;;;3.13;;
19812;SDS011;10066;48.108;11.448;2024-03-17T07:20:48;4.60;;;3.20;;
19812;SDS011;10066;48.108;11.448;2024-03-17T07:23:15;3.87;;;2.90;;
19812;SDS011;10066;48.108;11.448;2024-03-17T07:25:50;5.13;;;3.40;;
19812;SDS011;10066;48.108;11.448;2024-03-17T07:28:19;3.73;;;2.90;;
19812;SDS011;10066;48.108;11.448;2024-03-17T07:30:47;4.60;;;3.50;;
19812;SDS011;10066;48.108;11.448;2024-03-17T07:33:16;3.97;;;2.77;;
19812;SDS011;10066;48.108;11.448;2024-03-17T07:35:49;4.13;;;3.20;;
19812;SDS011;10066;48.108;11.448;2024-03-17T07:38:16;4.80;;;3.47;;
19812;SDS011;10066;48.108;11.448;2024-03-17T07:40:44;4.63;;;3.10;;
19812;SDS011;10066;48.108;11.448;2024-03-17T07:43:21;6.47;;;3.20;;
19812;SDS011;10066;48.108;11.448;2024-03-17T07:45:56;4.23;;;3.37;;
19812;SDS011;10066;48.108;11.448;2024-03-17T07:48:25;4.33;;;3.30;;
19812;SDS011;10066;48.108;11.448;2024-03-17T07:50:54;3.83;;;2.80;;
19812;SDS011;10066;48.108;11.448;2024-03-17T07:53:21;4.07;;;3.20;;
19812;SDS011;10066;48.108;11.448;2024-03-17T07:55:56;3.33;;;2.73;;
19812;SDS011;10066;48.108;11.448;2024-03-17T07:58:24;2.80;;;2.30;;
19812;SDS011;10066;48.108;11.448;2024-03-17T08:00:52;2.97;;;2.20;;
19812;SDS011;10066;48.108;11.448;2024-03-17T08:03:26;3.67;;;2.23;;
19812;SDS011;10066;48.108;11.448;2024-03-17T08:05:53;2.60;;;2.33;;
19812;SDS011;10066;48.108;11.448;2024-03-17T08:08:21;2.77;;;2.30;;
19812;SDS011;10066;48.108;11.448;2024-03-17T08:10:48;2.40;;;2.20;;
19812;SDS011;10066;48.108;11.448;2024-03-17T08:13:17;2.90;;;2.30;;
19812;SDS011;10066;48.108;11.448;2024-03-17T08:15:45;3.47;;;2.80;;
19812;SDS011;10066;48.108;11.448;2024-03-17T08:18:13;3.77;;;2.60;;
19812;SDS011;10066;48.108;11.448;2024-03-17T08:20:42;2.67;;;2.40;;
19812;SDS011;10066;48.108;11.448;2024-03-17T08:23:11;2.83;;;2.17;;
19812;SDS011;10066;48.108;11.448;2024-03-17T08:25:39;3.60;;;2.57;;
19812;SDS011;10066;48.108;11.448;2024-03-17T08:28:07;2.03;;;1.80;;
19812;SDS011;10066;48.108;11.448;2024-03-17T08:30:34;3.30;;;2.20;;
19812;SDS011;10066;48.108;11.448;2024-03-17T08:33:01;2.47;;;2.00;;
19812;SDS011;10066;48.108;11.448;2024-03-17T08:35:28;3.10;;;2.00;;
19812;SDS011;10066;48.108;11.448;2024-03-17T08:37:57;2.77;;;2.07;;
19812;SDS011;10066;48.108;11.448;2024-03-17T08:40:25;2.83;;;2.10;;
19812;SDS011;10066;48.108;11.448;2024-03-17T08:42:52;2.30;;;1.60;;
19812;SDS011;10066;48.108;11.448;2024-03-17T08:45:20;1.47;;;1.37;;
19812;SDS011;10066;48.108;11.448;2024-03-17T08:47:50;2.67;;;1.87;;
19812;SDS011;10066;48.108;11.448;2024-03-17T08:50:18;2.00;;;1.80;;
19812;SDS011;10066;48.108;11.448;2024-03-17T08:52:45;3.43;;;1.60;;
19812;SDS011;10066;48.108;11.448;2024-03-17T08:55:14;2.07;;;1.80;;
19812;SDS011;10066;48.108;11.448;2024-03-17T08:57:41;1.60;;;1.50;;
19812;SDS011;10066;48.108;11.448;2024-03-17T09:00:09;1.40;;;1.30;;
19812;SDS011;10066;48.108;11.448;2024-03-17T09:02:39;1.93;;;1.20;;
19812;SDS011;10066;48.108;11.448;2024-03-17T09:05:07;1.93;;;1.53;;
19812;SDS011;10066;48.108;11.448;2024-03-17T09:07:34;2.83;;;1.40;;
19812;SDS011;10066;48.108;11.448;2024-03-17T09:10:02;1.40;;;1.30;;
19812;SDS011;10066;48.108;11.448;2024-03-17T09:12:31;4.30;;;1.30;;
19812;SDS011;10066;48.108;11.448;2024-03-17T09:14:58;2.83;;;1.40;;
19812;SDS011;10066;48.108;11.448;2024-03-17T09:17:25;2.50;;;1.40;;
19812;SDS011;10066;48.108;11.448;2024-03-17T09:19:52;2.03;;;1.57;;
19812;SDS011;10066;48.108;11.448;2024-03-17T09:22:19;2.00;;;1.30;;
19812;SDS011;10066;48.108;11.448;2024-03-17T09:24:47;2.27;;;1.53;;
19812;SDS011;10066;48.108;11.448;2024-03-17T09:27:14;1.83;;;1.30;;
19812;SDS011;10066;48.108;11.448;2024-03-17T09:29:47;2.20;;;1.40;;
19812;SDS011;10066;48.108;11.448;2024-03-17T09:32:14;2.17;;;1.23;;
19812;SDS011;10066;48.108;11.448;2024-03-17T09:34:42;2.07;;;1.20;;
19812;SDS011;10066;48.108;11.448;2024-03-17T09:37:13;1.13;;;1.00;;
19812;SDS011;10066;48.108;11.448;2024-03-17T09:39:40;1.53;;;1.00;;
19812;SDS011;10066;48.108;11.448;2024-03-17T09:42:09;1.50;;;1.10;;
19812;SDS011;10066;48.108;11.448;2024-03-17T09:44:43;2.30;;;1.20;;
19812;SDS011;10066;48.108;11.448;2024-03-17T09:47:14;2.03;;;1.27;;
19812;SDS011;10066;48.108;11.448;2024-03-17T09:49:46;1.30;;;1.03;;
19812;SDS011;10066;48.108;11.448;2024-03-17T09:52:16;1.57;;;1.00;;
19812;SDS011;10066;48.108;11.448;2024-03-17T09:54:48;1.37;;;0.93;;
19812;SDS011;10066;48.108;11.448;2024-03-17T09:57:21;1.57;;;1.20;;
19812;SDS011;10066;48.108;11.448;2024-03-17T09:59:50;1.40;;;1.13;;
19812;SDS011;10066;48.108;11.448;2024-03-17T10:02:20;2.10;;;1.30;;
19812;SDS011;10066;48.108;11.448;2024-03-17T10:04:48;1.83;;;1.20;;
19812;SDS011;10066;48.108;11.448;2024-03-17T10:07:15;1.77;;;1.13;;
19812;SDS011;10066;48.108;11.448;2024-03-17T10:09:42;1.77;;;0.90;;
19812;SDS011;10066;48.108;11.448;2024-03-17T10:12:26;1.70;;;0.90;;
19812;SDS011;10066;48.108;11.448;2024-03-17T10:14:57;1.57;;;1.03;;
19812;SDS011;10066;48.108;11.448;2024-03-17T10:17:32;4.47;;;0.90;;
19812;SDS011;10066;48.108;11.448;2024-03-17T10:20:14;2.40;;;1.07;;
19812;SDS011;10066;48.108;11.448;2024-03-17T10:22:58;3.03;;;0.83;;
19812;SDS011;10066;48.108;11.448;2024-03-17T10:25:26;3.93;;;1.20;;
19812;SDS011;10066;48.108;11.448;2024-03-17T10:27:54;3.93;;;1.00;;
19812;SDS011;10066;48.108;11.448;2024-03-17T10:30:22;1.20;;;0.80;;
19812;SDS011;10066;48.108;11.448;2024-03-17T10:32:57;2.47;;;1.00;;
19812;SDS011;10066;48.108;11.448;2024-03-17T10:35:29;2.27;;;1.30;;
19812;SDS011;10066;48.108;11.448;2024-03-17T10:37:58;1.30;;;1.00;;
19812;SDS011;10066;48.108;11.448;2024-03-17T10:40:26;1.60;;;1.10;;
19812;SDS011;10066;48.108;11.448;2024-03-17T10:42:55;1.57;;;0.90;;
19812;SDS011;10066;48.108;11.448;2024-03-17T10:45:23;3.13;;;1.40;;
19812;SDS011;10066;48.108;11.448;2024-03-17T10:47:52;1.70;;;1.00;;
19812;SDS011;10066;48.108;11.448;2024-03-17T10:50:21;3.07;;;1.10;;
19812;SDS011;10066;48.108;11.448;2024-03-17T10:52:49;1.57;;;1.03;;
19812;SDS011;10066;48.108;11.448;2024-03-17T10:55:21;2.43;;;1.27;;
19812;SDS011;10066;48.108;11.448;2024-03-17T10:57:50;2.57;;;1.20;;
19812;SDS011;10066;48.108;11.448;2024-03-17T11:00:19;3.10;;;1.10;;
19812;SDS011;10066;48.108;11.448;2024-03-17T11:02:48;1.57;;;1.10;;
19812;SDS011;10066;48.108;11.448;2024-03-17T11:05:18;2.23;;;1.20;;
19812;SDS011;10066;48.108;11.448;2024-03-17T11:07:49;1.23;;;1.00;;
19812;SDS011;10066;48.108;11.448;2024-03-17T11:10:20;2.17;;;1.00;;
19812;SDS011;10066;48.108;11.448;2024-03-17T11:12:49;2.50;;;1.00;;
19812;SDS011;10066;48.108;11.448;2024-03-17T11:15:38;2.70;;;1.30;;
19812;SDS011;10066;48.108;11.448;2024-03-17T11:20:58;3.87;;;0.90;;
19812;SDS011;10066;48.108;11.448;2024-03-17T11:23:27;1.87;;;1.10;;
19812;SDS011;10066;48.108;11.448;2024-03-17T11:25:55;2.47;;;1.10;;
19812;SDS011;10066;48.108;11.448;2024-03-17T11:34:35;2.13;;;1.10;;
19812;SDS011;10066;48.108;11.448;2024-03-17T11:37:39;2.87;;;1.10;;
19812;SDS011;10066;48.108;11.448;2024-03-17T11:40:22;1.53;;;0.70;;
19812;SDS011;10066;48.108;11.448;2024-03-17T11:43:00;2.10;;;0.90;;
19812;SDS011;10066;48.108;11.448;2024-03-17T11:45:27;3.37;;;1.10;;
19812;SDS011;10066;48.108;11.448;2024-03-17T11:47:53;1.77;;;0.80;;
19812;SDS011;10066;48.108;11.448;2024-03-17T11:50:22;2.57;;;0.90;;
19812;SDS011;10066;48.108;11.448;2024-03-17T11:52:58;2.53;;;0.80;;
19812;SDS011;10066;48.108;11.448;2024-03-17T11:55:25;3.27;;;0.90;;
19812;SDS011;10066;48.108;11.448;2024-03-17T11:57:55;3.30;;;1.00;;
19812;SDS011;10066;48.108;11.448;2024-03-17T12:00:23;3.47;;;1.00;;
19812;SDS011;10066;48.108;11.448;2024-03-17T12:02:49;4.13;;;1.13;;
19812;SDS011;10066;48.108;11.448;2024-03-17T12:05:20;4.20;;;1.10;;
19812;SDS011;10066;48.108;11.448;2024-03-17T12:07:46;2.03;;;0.80;;
19812;SDS011;10066;48.108;11.448;2024-03-17T12:10:16;2.67;;;0.90;;
19812;SDS011;10066;48.108;11.448;2024-03-17T12:12:46;5.07;;;1.20;;
19812;SDS011;10066;48.108;11.448;2024-03-17T12:15:17;2.23;;;0.73;;
19812;SDS011;10066;48.108;11.448;2024-03-17T12:17:45;1.60;;;0.70;;
19812;SDS011;10066;48.108;11.448;2024-03-17T12:20:18;1.23;;;0.80;;
19812;SDS011;10066;48.108;11.448;2024-03-17T12:22:45;3.87;;;0.90;;
19812;SDS011;10066;48.108;11.448;2024-03-17T12:25:15;1.90;;;0.70;;
19812;SDS011;10066;48.108;11.448;2024-03-17T12:27:44;3.20;;;1.23;;
19812;SDS011;10066;48.108;11.448;2024-03-17T12:30:13;4.20;;;1.10;;
19812;SDS011;10066;48.108;11.448;2024-03-17T12:32:40;4.37;;;0.80;;
19812;SDS011;10066;48.108;11.448;2024-03-17T12:35:12;1.77;;;0.80;;
19812;SDS011;10066;48.108;11.448;2024-03-17T12:37:40;1.63;;;0.67;;
19812;SDS011;10066;48.108;11.448;2024-03-17T12:40:19;2.33;;;0.80;;
19812;SDS011;10066;48.108;11.448;2024-03-17T12:42:47;3.73;;;1.00;;
19812;SDS011;10066;48.108;11.448;2024-03-17T12:45:19;1.90;;;0.77;;
19812;SDS011;10066;48.108;11.448;2024-03-17T12:47:46;2.83;;;0.80;;
19812;SDS011;10066;48.108;11.448;2024-03-17T12:50:14;3.60;;;0.90;;
19812;SDS011;10066;48.108;11.448;2024-03-17T12:52:46;2.37;;;0.80;;
19812;SDS011;10066;48.108;11.448;2024-03-17T12:55:20;1.47;;;0.70;;
19812;SDS011;10066;48.108;11.448;2024-03-17T12:58:05;1.70;;;0.80;;
19812;SDS011;10066;48.108;11.448;2024-03-17T13:00:56;2.33;;;0.90;;
19812;SDS011;10066;48.108;11.448;2024-03-17T13:03:25;3.27;;;1.27;;
19812;SDS011;10066;48.108;11.448;2024-03-17T13:05:54;2.40;;;0.97;;
19812;SDS011;10066;48.108;11.448;2024-03-17T13:08:21;2.37;;;1.03;;
19812;SDS011;10066;48.108;11.448;2024-03-17T13:10:50;2.97;;;1.10;;
19812;SDS011;10066;48.108;11.448;2024-03-17T13:13:17;5.47;;;0.90;;
19812;SDS011;10066;48.108;11.448;2024-03-17T13:15:44;2.00;;;0.90;;
19812;SDS011;10066;48.108;11.448;2024-03-17T13:18:16;1.57;;;0.90;;
19812;SDS011;10066;48.108;11.448;2024-03-17T13:20:45;2.07;;;1.10;;
19812;SDS011;10066;48.108;11.448;2024-03-17T13:23:14;2.77;;;1.27;;
19812;SDS011;10066;48.108;11.448;2024-03-17T13:25:42;3.07;;;0.97;;
19812;SDS011;10066;48.108;11.448;2024-03-17T13:28:11;2.50;;;0.97;;
19812;SDS011;10066;48.108;11.448;2024-03-17T13:30:39;4.10;;;0.90;;
19812;SDS011;10066;48.108;11.448;2024-03-17T13:33:07;4.50;;;1.13;;
19812;SDS011;10066;48.108;11.448;2024-03-17T13:35:35;3.63;;;0.90;;
19812;SDS011;10066;48.108;11.448;2024-03-17T13:38:04;4.33;;;1.10;;
19812;SDS011;10066;48.108;11.448;2024-03-17T13:40:33;3.23;;;1.00;;
19812;SDS011;10066;48.108;11.448;2024-03-17T13:43:01;3.00;;;1.20;;
19812;SDS011;10066;48.108;11.448;2024-03-17T13:45:30;2.77;;;1.00;;
19812;SDS011;10066;48.108;11.448;2024-03-17T13:48:04;2.73;;;0.87;;
19812;SDS011;10066;48.108;11.448;2024-03-17T13:50:34;2.10;;;1.00;;
19812;SDS011;10066;48.108;11.448;2024-03-17T13:53:01;2.73;;;1.20;;
19812;SDS011;10066;48.108;11.448;2024-03-17T13:55:29;2.33;;;1.00;;
19812;SDS011;10066;48.108;11.448;2024-03-17T13:57:57;2.57;;;1.00;;
19812;SDS011;10066;48.108;11.448;2024-03-17T14:00:25;4.10;;;1.10;;
19812;SDS011;10066;48.108;11.448;2024-03-17T14:02:55;3.40;;;1.00;;
19812;SDS011;10066;48.108;11.448;2024-03-17T14:05:23;1.90;;;0.93;;
19812;SDS011;10066;48.108;11.448;2024-03-17T14:07:51;1.70;;;1.00;;
19812;SDS011;10066;48.108;11.448;2024-03-17T14:10:19;3.47;;;1.00;;
19812;SDS011;10066;48.108;11.448;2024-03-17T14:12:50;3.33;;;0.93;;
19812;SDS011;10066;48.108;11.448;2024-03-17T14:15:18;2.43;;;1.13;;
19812;SDS011;10066;48.108;11.448;2024-03-17T14:17:46;1.90;;;0.87;;
19812;SDS011;10066;48.108;11.448;2024-03-17T14:20:18;2.93;;;0.90;;
19812;SDS011;10066;48.108;11.448;2024-03-17T14:22:46;3.07;;;1.00;;
19812;SDS011;10066;48.108;11.448;2024-03-17T14:25:19;2.40;;;0.80;;
19812;SDS011;10066;48.108;11.448;2024-03-17T14:27:48;2.60;;;0.70;;
19812;SDS011;10066;48.108;11.448;2024-03-17T14:30:15;2.93;;;0.93;;
19812;SDS011;10066;48.108;11.448;2024-03-17T14:32:43;2.27;;;0.83;;
19812;SDS011;10066;48.108;11.448;2024-03-17T14:35:12;2.60;;;1.10;;
19812;SDS011;10066;48.108;11.448;2024-03-17T14:37:42;4.20;;;1.10;;
19812;SDS011;10066;48.108;11.448;2024-03-17T14:40:13;4.57;;;1.20;;
19812;SDS011;10066;48.108;11.448;2024-03-17T14:42:45;1.70;;;0.87;;
19812;SDS011;10066;48.108;11.448;2024-03-17T14:45:12;3.20;;;1.10;;
19812;SDS011;10066;48.108;11.448;2024-03-17T14:47:40;2.63;;;0.97;;
19812;SDS011;10066;48.108;11.448;2024-03-17T14:50:08;3.83;;;1.20;;
19812;SDS011;10066;48.108;11.448;2024-03-17T14:52:37;3.33;;;1.07;;